PWSweather.com
Personal Weather Stations
Station Observations
CARNOUSTIE
Pambride, CarnoustieGB DD7 6DY

PambrideCarnoustieGB DD7 6DY

Lat: 56.50889, Lon: -2.7051

Elevation: 105

Station Type: Oregon Scientific WMR200

www.carnoustieweather.co.uk

High Low Average
Temperature 60.8°F16.0°C 53.4°F11.9°C 55.1°F12.8°C
Dew Point 55.6°F13.1°C 52.2°F11.2°C 52.9°F11.6°C
Winds 9.2 mph 14.8 kmh 2.3 mph 3.7 kmh 5.0 mph NE8.0 kmh NE
Wind Gusts 10.4 mph16.7 kmh 2.3 mph3.7 kmh 7.0 mph11.3 kmh
Humidity 96% 83% 92%
Pressure 30.00 in1015.9 mb 29.94 in1013.9 mb -
Precipitation 0.00 in0.0 mm - -
Hour Temp Dew Point Humidity Winds Wind Gusts Pressure Precip Precip Rate Daily Precip Total
04:50 PM 60.8°F16.0°C 55.6°F13.1°C 83% 9.2 mph ESE14.8 kmh ESE 10.4 mph16.7 kmh 29.94 in1013.9 mb - 0.00 in0.0 mm 0.00 in0.0 mm
05:00 PM 60.4°F15.8°C 55.3°F12.9°C 83% 5.8 mph E9.3 kmh E 9.2 mph14.8 kmh 29.94 in1013.9 mb - 0.00 in0.0 mm 0.00 in0.0 mm
05:10 PM 59.7°F15.4°C 54.9°F12.7°C 84% 6.9 mph E11.1 kmh E 9.2 mph14.8 kmh 29.94 in1013.9 mb - 0.00 in0.0 mm 0.00 in0.0 mm
05:20 PM 59.1°F15.1°C 54.2°F12.3°C 84% 6.9 mph E11.1 kmh E 8.1 mph13.0 kmh 29.96 in1014.6 mb - 0.00 in0.0 mm 0.00 in0.0 mm
05:30 PM 58.5°F14.7°C 54.0°F12.2°C 85% 5.8 mph ENE9.3 kmh ENE 6.9 mph11.1 kmh 29.97 in1014.9 mb - 0.00 in0.0 mm 0.00 in0.0 mm
05:40 PM 57.9°F14.4°C 53.8°F12.1°C 86% 5.8 mph ENE9.3 kmh ENE 6.9 mph11.1 kmh 29.94 in1013.9 mb - 0.00 in0.0 mm 0.00 in0.0 mm
06:00 PM 57.2°F14.0°C 53.7°F12.1°C 88% 4.6 mph NNE7.4 kmh NNE 8.1 mph13.0 kmh 29.97 in1014.9 mb - 0.00 in0.0 mm 0.00 in0.0 mm
06:10 PM 56.8°F13.8°C 53.3°F11.8°C 88% 5.8 mph NE9.3 kmh NE 8.1 mph13.0 kmh 29.97 in1014.9 mb - 0.00 in0.0 mm 0.00 in0.0 mm
06:20 PM 56.5°F13.6°C 53.3°F11.8°C 89% 6.9 mph ENE11.1 kmh ENE 8.1 mph13.0 kmh 29.97 in1014.9 mb - 0.00 in0.0 mm 0.00 in0.0 mm
06:30 PM 56.1°F13.4°C 53.2°F11.8°C 90% 5.8 mph NE9.3 kmh NE 8.1 mph13.0 kmh 29.97 in1014.9 mb - 0.00 in0.0 mm 0.00 in0.0 mm
06:40 PM 56.0°F13.3°C 53.1°F11.7°C 90% 5.8 mph E9.3 kmh E 8.1 mph13.0 kmh 29.97 in1014.9 mb - 0.00 in0.0 mm 0.00 in0.0 mm
06:50 PM 55.6°F13.1°C 53.0°F11.7°C 91% 6.9 mph ENE11.1 kmh ENE 8.1 mph13.0 kmh 29.97 in1014.9 mb - 0.00 in0.0 mm 0.00 in0.0 mm
07:00 PM 55.3°F12.9°C 53.0°F11.7°C 92% 6.9 mph NE11.1 kmh NE 8.1 mph13.0 kmh 29.97 in1014.9 mb - 0.00 in0.0 mm 0.00 in0.0 mm
07:10 PM 55.0°F12.8°C 52.8°F11.6°C 92% 8.1 mph NE13.0 kmh NE 9.2 mph14.8 kmh 30.00 in1015.9 mb - 0.00 in0.0 mm 0.00 in0.0 mm
07:20 PM 54.9°F12.7°C 52.9°F11.6°C 93% 5.8 mph ENE9.3 kmh ENE 6.9 mph11.1 kmh 29.99 in1015.6 mb - 0.00 in0.0 mm 0.00 in0.0 mm
07:30 PM 54.6°F12.6°C 52.6°F11.4°C 93% 6.9 mph NE11.1 kmh NE 8.1 mph13.0 kmh 29.97 in1014.9 mb - 0.00 in0.0 mm 0.00 in0.0 mm
07:40 PM 54.7°F12.6°C 52.7°F11.5°C 93% 6.9 mph NE11.1 kmh NE 8.1 mph13.0 kmh 29.97 in1014.9 mb - 0.00 in0.0 mm 0.00 in0.0 mm
07:50 PM 54.5°F12.5°C 52.5°F11.4°C 93% 5.8 mph NE9.3 kmh NE 9.2 mph14.8 kmh 29.99 in1015.6 mb - 0.00 in0.0 mm 0.00 in0.0 mm
08:00 PM 54.3°F12.4°C 52.6°F11.4°C 94% 6.9 mph ENE11.1 kmh ENE 9.2 mph14.8 kmh 30.00 in1015.9 mb - 0.00 in0.0 mm 0.00 in0.0 mm
08:10 PM 54.2°F12.3°C 52.5°F11.4°C 94% 4.6 mph NE7.4 kmh NE 5.8 mph9.3 kmh 29.97 in1014.9 mb - 0.00 in0.0 mm 0.00 in0.0 mm
08:20 PM 54.1°F12.3°C 52.5°F11.4°C 94% 4.6 mph NE7.4 kmh NE 6.9 mph11.1 kmh 29.97 in1014.9 mb - 0.00 in0.0 mm 0.00 in0.0 mm
08:30 PM 54.2°F12.3°C 52.5°F11.4°C 94% 5.8 mph ENE9.3 kmh ENE 6.9 mph11.1 kmh 29.97 in1014.9 mb - 0.00 in0.0 mm 0.00 in0.0 mm
08:40 PM 54.3°F12.4°C 52.6°F11.4°C 94% 4.6 mph NE7.4 kmh NE 5.8 mph9.3 kmh 29.97 in1014.9 mb - 0.00 in0.0 mm 0.00 in0.0 mm
08:50 PM 54.3°F12.4°C 52.6°F11.4°C 94% 3.5 mph NE5.6 kmh NE 4.6 mph7.4 kmh 29.97 in1014.9 mb - 0.00 in0.0 mm 0.00 in0.0 mm
09:00 PM 54.1°F12.3°C 52.5°F11.4°C 94% 4.6 mph NE7.4 kmh NE 8.1 mph13.0 kmh 29.97 in1014.9 mb - 0.00 in0.0 mm 0.00 in0.0 mm
09:10 PM 54.0°F12.2°C 52.3°F11.3°C 94% 5.8 mph NE9.3 kmh NE 6.9 mph11.1 kmh 29.94 in1013.9 mb - 0.00 in0.0 mm 0.00 in0.0 mm
09:20 PM 54.0°F12.2°C 52.6°F11.4°C 95% 4.6 mph NE7.4 kmh NE 5.8 mph9.3 kmh 29.96 in1014.6 mb - 0.00 in0.0 mm 0.00 in0.0 mm
09:30 PM 53.8°F12.1°C 52.4°F11.3°C 95% 5.8 mph NE9.3 kmh NE 6.9 mph11.1 kmh 29.97 in1014.9 mb - 0.00 in0.0 mm 0.00 in0.0 mm
09:40 PM 53.8°F12.1°C 52.4°F11.3°C 95% 5.8 mph NE9.3 kmh NE 6.9 mph11.1 kmh 29.97 in1014.9 mb - 0.00 in0.0 mm 0.00 in0.0 mm
09:50 PM 53.7°F12.1°C 52.3°F11.3°C 95% 4.6 mph NE7.4 kmh NE 5.8 mph9.3 kmh 29.97 in1014.9 mb - 0.00 in0.0 mm 0.00 in0.0 mm
10:00 PM 53.7°F12.1°C 52.3°F11.3°C 95% 3.5 mph NE5.6 kmh NE 4.6 mph7.4 kmh 29.97 in1014.9 mb - 0.00 in0.0 mm 0.00 in0.0 mm
10:10 PM 53.6°F12.0°C 52.2°F11.2°C 95% 4.6 mph NE7.4 kmh NE 4.6 mph7.4 kmh 29.97 in1014.9 mb - 0.00 in0.0 mm 0.00 in0.0 mm
10:20 PM 53.4°F11.9°C 52.3°F11.3°C 96% 4.6 mph NE7.4 kmh NE 6.9 mph11.1 kmh 29.97 in1014.9 mb - 0.00 in0.0 mm 0.00 in0.0 mm
10:30 PM 53.4°F11.9°C 52.3°F11.3°C 96% 4.6 mph NNE7.4 kmh NNE 5.8 mph9.3 kmh 29.97 in1014.9 mb - 0.00 in0.0 mm 0.00 in0.0 mm
10:40 PM 53.4°F11.9°C 52.3°F11.3°C 96% 4.6 mph NE7.4 kmh NE 5.8 mph9.3 kmh 29.97 in1014.9 mb - 0.00 in0.0 mm 0.00 in0.0 mm
10:50 PM 53.4°F11.9°C 52.3°F11.3°C 96% 3.5 mph NE5.6 kmh NE 4.6 mph7.4 kmh 29.97 in1014.9 mb - 0.00 in0.0 mm 0.00 in0.0 mm
11:00 PM 53.6°F12.0°C 52.5°F11.4°C 96% 2.3 mph E3.7 kmh E 3.5 mph5.6 kmh 29.97 in1014.9 mb - 0.00 in0.0 mm 0.00 in0.0 mm
11:10 PM 53.8°F12.1°C 52.7°F11.5°C 96% 3.5 mph E5.6 kmh E 3.5 mph5.6 kmh 29.97 in1014.9 mb - 0.00 in0.0 mm 0.00 in0.0 mm
11:20 PM 53.8°F12.1°C 52.7°F11.5°C 96% 4.6 mph E7.4 kmh E 4.6 mph7.4 kmh 29.99 in1015.6 mb - 0.00 in0.0 mm 0.00 in0.0 mm
11:30 PM 53.8°F12.1°C 52.7°F11.5°C 96% 4.6 mph E7.4 kmh E 5.8 mph9.3 kmh 30.00 in1015.9 mb - 0.00 in0.0 mm 0.00 in0.0 mm
11:40 PM 53.6°F12.0°C 52.5°F11.4°C 96% 4.6 mph NE7.4 kmh NE 5.8 mph9.3 kmh 29.97 in1014.9 mb - 0.00 in0.0 mm 0.00 in0.0 mm
11:50 PM 53.4°F11.9°C 52.3°F11.3°C 96% 2.3 mph NE3.7 kmh NE 2.3 mph3.7 kmh 29.99 in1015.6 mb - 0.00 in0.0 mm 0.00 in0.0 mm